sensor_id;sensor_type;location;lat;lon;timestamp;P1;durP1;ratioP1;P2;durP2;ratioP2
9720;SDS011;4899;42.644;23.366;2023-01-28T00:01:39;6.43;;;5.83;;
9720;SDS011;4899;42.644;23.366;2023-01-28T00:04:05;6.63;;;5.93;;
9720;SDS011;4899;42.644;23.366;2023-01-28T00:06:31;5.80;;;4.90;;
9720;SDS011;4899;42.644;23.366;2023-01-28T00:08:56;6.07;;;5.47;;
9720;SDS011;4899;42.644;23.366;2023-01-28T00:11:22;6.20;;;5.00;;
9720;SDS011;4899;42.644;23.366;2023-01-28T00:13:50;6.60;;;5.90;;
9720;SDS011;4899;42.644;23.366;2023-01-28T00:16:17;6.30;;;5.57;;
9720;SDS011;4899;42.644;23.366;2023-01-28T00:18:42;6.40;;;5.60;;
9720;SDS011;4899;42.644;23.366;2023-01-28T00:21:10;5.73;;;5.23;;
9720;SDS011;4899;42.644;23.366;2023-01-28T00:23:37;6.07;;;5.47;;
9720;SDS011;4899;42.644;23.366;2023-01-28T00:26:05;4.87;;;4.37;;
9720;SDS011;4899;42.644;23.366;2023-01-28T00:28:33;5.73;;;5.23;;
9720;SDS011;4899;42.644;23.366;2023-01-28T00:31:09;5.47;;;4.97;;
9720;SDS011;4899;42.644;23.366;2023-01-28T00:33:55;5.87;;;5.20;;
9720;SDS011;4899;42.644;23.366;2023-01-28T00:36:23;5.80;;;5.30;;
9720;SDS011;4899;42.644;23.366;2023-01-28T00:38:50;6.33;;;5.53;;
9720;SDS011;4899;42.644;23.366;2023-01-28T00:41:18;5.30;;;4.03;;
9720;SDS011;4899;42.644;23.366;2023-01-28T00:43:46;6.20;;;5.27;;
9720;SDS011;4899;42.644;23.366;2023-01-28T00:46:12;6.13;;;5.47;;
9720;SDS011;4899;42.644;23.366;2023-01-28T00:48:41;5.77;;;5.27;;
9720;SDS011;4899;42.644;23.366;2023-01-28T00:51:08;6.17;;;5.57;;
9720;SDS011;4899;42.644;23.366;2023-01-28T00:53:35;6.20;;;5.23;;
9720;SDS011;4899;42.644;23.366;2023-01-28T00:56:02;5.53;;;5.03;;
9720;SDS011;4899;42.644;23.366;2023-01-28T00:58:29;5.30;;;4.80;;
9720;SDS011;4899;42.644;23.366;2023-01-28T01:00:55;5.70;;;5.20;;
9720;SDS011;4899;42.644;23.366;2023-01-28T01:03:21;5.07;;;4.67;;
9720;SDS011;4899;42.644;23.366;2023-01-28T01:05:47;5.20;;;4.70;;
9720;SDS011;4899;42.644;23.366;2023-01-28T01:08:12;6.57;;;5.33;;
9720;SDS011;4899;42.644;23.366;2023-01-28T01:10:38;5.90;;;5.30;;
9720;SDS011;4899;42.644;23.366;2023-01-28T01:13:04;5.77;;;5.20;;
9720;SDS011;4899;42.644;23.366;2023-01-28T01:15:31;5.33;;;4.83;;
9720;SDS011;4899;42.644;23.366;2023-01-28T01:17:57;5.00;;;4.50;;
9720;SDS011;4899;42.644;23.366;2023-01-28T01:20:24;5.63;;;5.10;;
9720;SDS011;4899;42.644;23.366;2023-01-28T01:22:52;6.23;;;5.50;;
9720;SDS011;4899;42.644;23.366;2023-01-28T01:25:17;5.80;;;5.20;;
9720;SDS011;4899;42.644;23.366;2023-01-28T01:27:44;5.87;;;4.83;;
9720;SDS011;4899;42.644;23.366;2023-01-28T01:30:13;6.30;;;5.37;;
9720;SDS011;4899;42.644;23.366;2023-01-28T01:32:39;6.23;;;5.43;;
9720;SDS011;4899;42.644;23.366;2023-01-28T01:35:05;5.47;;;4.93;;
9720;SDS011;4899;42.644;23.366;2023-01-28T01:37:32;4.90;;;4.50;;
9720;SDS011;4899;42.644;23.366;2023-01-28T01:39:59;5.93;;;5.27;;
9720;SDS011;4899;42.644;23.366;2023-01-28T01:42:26;5.60;;;5.10;;
9720;SDS011;4899;42.644;23.366;2023-01-28T01:45:11;5.70;;;5.17;;
9720;SDS011;4899;42.644;23.366;2023-01-28T01:52:44;5.83;;;5.33;;
9720;SDS011;4899;42.644;23.366;2023-01-28T01:55:13;5.90;;;5.27;;
9720;SDS011;4899;42.644;23.366;2023-01-28T01:57:42;5.87;;;5.27;;
9720;SDS011;4899;42.644;23.366;2023-01-28T02:00:10;5.93;;;5.30;;
9720;SDS011;4899;42.644;23.366;2023-01-28T02:02:44;5.20;;;4.70;;
9720;SDS011;4899;42.644;23.366;2023-01-28T02:05:13;6.53;;;5.10;;
9720;SDS011;4899;42.644;23.366;2023-01-28T02:07:39;5.97;;;5.37;;
9720;SDS011;4899;42.644;23.366;2023-01-28T02:10:07;6.10;;;5.50;;
9720;SDS011;4899;42.644;23.366;2023-01-28T02:12:38;6.30;;;5.50;;
9720;SDS011;4899;42.644;23.366;2023-01-28T02:15:17;6.50;;;5.90;;
9720;SDS011;4899;42.644;23.366;2023-01-28T02:17:46;5.47;;;4.80;;
9720;SDS011;4899;42.644;23.366;2023-01-28T02:20:17;5.87;;;5.27;;
9720;SDS011;4899;42.644;23.366;2023-01-28T02:25:48;5.87;;;5.07;;
9720;SDS011;4899;42.644;23.366;2023-01-28T02:36:23;5.87;;;5.27;;
9720;SDS011;4899;42.644;23.366;2023-01-28T02:38:57;5.73;;;5.13;;
9720;SDS011;4899;42.644;23.366;2023-01-28T02:41:28;6.00;;;5.40;;
9720;SDS011;4899;42.644;23.366;2023-01-28T02:44:00;5.67;;;5.00;;
9720;SDS011;4899;42.644;23.366;2023-01-28T02:49:13;6.40;;;5.07;;
9720;SDS011;4899;42.644;23.366;2023-01-28T02:58:03;6.00;;;5.40;;
9720;SDS011;4899;42.644;23.366;2023-01-28T03:06:22;5.30;;;4.03;;
9720;SDS011;4899;42.644;23.366;2023-01-28T03:11:42;5.40;;;4.90;;
9720;SDS011;4899;42.644;23.366;2023-01-28T03:14:31;6.20;;;5.60;;
9720;SDS011;4899;42.644;23.366;2023-01-28T03:17:26;6.33;;;5.73;;
9720;SDS011;4899;42.644;23.366;2023-01-28T03:20:15;5.90;;;5.40;;
9720;SDS011;4899;42.644;23.366;2023-01-28T03:23:00;5.57;;;5.00;;
9720;SDS011;4899;42.644;23.366;2023-01-28T03:25:49;6.87;;;5.90;;
9720;SDS011;4899;42.644;23.366;2023-01-28T03:28:39;6.50;;;5.40;;
9720;SDS011;4899;42.644;23.366;2023-01-28T03:31:25;5.80;;;5.10;;
9720;SDS011;4899;42.644;23.366;2023-01-28T03:34:09;5.90;;;5.40;;
9720;SDS011;4899;42.644;23.366;2023-01-28T03:36:54;5.90;;;5.40;;
9720;SDS011;4899;42.644;23.366;2023-01-28T03:39:25;6.20;;;5.57;;
9720;SDS011;4899;42.644;23.366;2023-01-28T03:44:25;6.77;;;6.03;;
9720;SDS011;4899;42.644;23.366;2023-01-28T03:47:10;7.10;;;6.43;;
9720;SDS011;4899;42.644;23.366;2023-01-28T03:49:39;5.73;;;5.23;;
9720;SDS011;4899;42.644;23.366;2023-01-28T03:52:05;6.23;;;5.60;;
9720;SDS011;4899;42.644;23.366;2023-01-28T03:54:31;7.50;;;5.77;;
9720;SDS011;4899;42.644;23.366;2023-01-28T03:56:57;6.47;;;5.87;;
9720;SDS011;4899;42.644;23.366;2023-01-28T03:59:22;5.57;;;5.07;;
9720;SDS011;4899;42.644;23.366;2023-01-28T04:01:47;5.87;;;5.33;;
9720;SDS011;4899;42.644;23.366;2023-01-28T04:04:15;6.17;;;5.57;;
9720;SDS011;4899;42.644;23.366;2023-01-28T04:06:48;7.17;;;5.30;;
9720;SDS011;4899;42.644;23.366;2023-01-28T04:09:14;6.67;;;5.57;;
9720;SDS011;4899;42.644;23.366;2023-01-28T04:11:39;5.90;;;5.30;;
9720;SDS011;4899;42.644;23.366;2023-01-28T04:14:05;6.70;;;5.10;;
9720;SDS011;4899;42.644;23.366;2023-01-28T04:16:30;5.83;;;5.17;;
9720;SDS011;4899;42.644;23.366;2023-01-28T04:18:56;5.67;;;4.83;;
9720;SDS011;4899;42.644;23.366;2023-01-28T04:21:23;5.50;;;5.00;;
9720;SDS011;4899;42.644;23.366;2023-01-28T04:23:49;5.40;;;4.93;;
9720;SDS011;4899;42.644;23.366;2023-01-28T04:26:14;5.70;;;5.10;;
9720;SDS011;4899;42.644;23.366;2023-01-28T04:28:40;5.10;;;4.60;;
9720;SDS011;4899;42.644;23.366;2023-01-28T04:31:06;6.27;;;5.70;;
9720;SDS011;4899;42.644;23.366;2023-01-28T04:33:34;5.80;;;5.27;;
9720;SDS011;4899;42.644;23.366;2023-01-28T04:35:59;6.73;;;5.23;;
9720;SDS011;4899;42.644;23.366;2023-01-28T04:38:25;5.43;;;4.93;;
9720;SDS011;4899;42.644;23.366;2023-01-28T04:40:51;5.67;;;5.17;;
9720;SDS011;4899;42.644;23.366;2023-01-28T04:43:17;6.17;;;5.57;;
9720;SDS011;4899;42.644;23.366;2023-01-28T04:45:44;5.30;;;4.80;;
9720;SDS011;4899;42.644;23.366;2023-01-28T04:48:11;5.80;;;5.20;;
9720;SDS011;4899;42.644;23.366;2023-01-28T04:50:37;5.40;;;4.90;;
9720;SDS011;4899;42.644;23.366;2023-01-28T04:53:03;5.63;;;5.13;;
9720;SDS011;4899;42.644;23.366;2023-01-28T04:55:28;6.77;;;5.80;;
9720;SDS011;4899;42.644;23.366;2023-01-28T04:57:54;5.63;;;5.13;;
9720;SDS011;4899;42.644;23.366;2023-01-28T05:00:19;5.90;;;5.30;;
9720;SDS011;4899;42.644;23.366;2023-01-28T05:02:45;6.43;;;5.80;;
9720;SDS011;4899;42.644;23.366;2023-01-28T05:05:11;6.43;;;5.83;;
9720;SDS011;4899;42.644;23.366;2023-01-28T05:07:36;6.00;;;5.40;;
9720;SDS011;4899;42.644;23.366;2023-01-28T05:10:02;6.47;;;5.80;;
9720;SDS011;4899;42.644;23.366;2023-01-28T05:12:28;6.23;;;5.63;;
9720;SDS011;4899;42.644;23.366;2023-01-28T05:14:57;6.10;;;5.50;;
9720;SDS011;4899;42.644;23.366;2023-01-28T05:17:24;6.27;;;5.67;;
9720;SDS011;4899;42.644;23.366;2023-01-28T05:19:50;6.93;;;6.23;;
9720;SDS011;4899;42.644;23.366;2023-01-28T05:22:16;6.13;;;5.53;;
9720;SDS011;4899;42.644;23.366;2023-01-28T05:24:41;6.13;;;5.60;;
9720;SDS011;4899;42.644;23.366;2023-01-28T05:27:07;6.43;;;5.83;;
9720;SDS011;4899;42.644;23.366;2023-01-28T05:29:33;6.70;;;5.30;;
9720;SDS011;4899;42.644;23.366;2023-01-28T05:31:58;5.43;;;4.47;;
9720;SDS011;4899;42.644;23.366;2023-01-28T05:34:24;5.93;;;5.33;;
9720;SDS011;4899;42.644;23.366;2023-01-28T05:36:49;4.80;;;4.40;;
9720;SDS011;4899;42.644;23.366;2023-01-28T05:39:15;6.27;;;5.23;;
9720;SDS011;4899;42.644;23.366;2023-01-28T05:41:40;6.03;;;5.33;;
9720;SDS011;4899;42.644;23.366;2023-01-28T05:44:06;6.23;;;5.63;;
9720;SDS011;4899;42.644;23.366;2023-01-28T05:46:31;6.37;;;5.70;;
9720;SDS011;4899;42.644;23.366;2023-01-28T05:48:57;5.30;;;4.50;;
9720;SDS011;4899;42.644;23.366;2023-01-28T05:51:22;5.50;;;5.00;;
9720;SDS011;4899;42.644;23.366;2023-01-28T05:53:48;5.50;;;5.00;;
9720;SDS011;4899;42.644;23.366;2023-01-28T05:56:13;5.50;;;5.00;;
9720;SDS011;4899;42.644;23.366;2023-01-28T05:58:39;6.13;;;5.07;;
9720;SDS011;4899;42.644;23.366;2023-01-28T06:01:04;5.40;;;4.90;;
9720;SDS011;4899;42.644;23.366;2023-01-28T06:03:30;6.10;;;5.03;;
9720;SDS011;4899;42.644;23.366;2023-01-28T06:05:55;5.87;;;5.37;;
9720;SDS011;4899;42.644;23.366;2023-01-28T06:08:21;5.23;;;4.67;;
9720;SDS011;4899;42.644;23.366;2023-01-28T06:10:48;6.00;;;5.40;;
9720;SDS011;4899;42.644;23.366;2023-01-28T06:13:13;6.40;;;5.47;;
9720;SDS011;4899;42.644;23.366;2023-01-28T06:15:39;5.67;;;5.17;;
9720;SDS011;4899;42.644;23.366;2023-01-28T06:18:04;7.17;;;6.00;;
9720;SDS011;4899;42.644;23.366;2023-01-28T06:20:31;6.83;;;5.80;;
9720;SDS011;4899;42.644;23.366;2023-01-28T06:22:56;7.07;;;5.90;;
9720;SDS011;4899;42.644;23.366;2023-01-28T06:25:22;6.77;;;5.93;;
9720;SDS011;4899;42.644;23.366;2023-01-28T06:27:47;6.57;;;5.77;;
9720;SDS011;4899;42.644;23.366;2023-01-28T06:30:13;6.70;;;6.00;;
9720;SDS011;4899;42.644;23.366;2023-01-28T06:32:38;5.93;;;5.33;;
9720;SDS011;4899;42.644;23.366;2023-01-28T06:35:04;6.80;;;6.17;;
9720;SDS011;4899;42.644;23.366;2023-01-28T06:37:30;5.47;;;5.03;;
9720;SDS011;4899;42.644;23.366;2023-01-28T06:39:55;5.60;;;5.10;;
9720;SDS011;4899;42.644;23.366;2023-01-28T06:42:21;5.70;;;5.20;;
9720;SDS011;4899;42.644;23.366;2023-01-28T06:44:46;6.37;;;5.60;;
9720;SDS011;4899;42.644;23.366;2023-01-28T06:47:12;7.40;;;6.70;;
9720;SDS011;4899;42.644;23.366;2023-01-28T06:49:39;6.83;;;6.13;;
9720;SDS011;4899;42.644;23.366;2023-01-28T06:52:05;7.37;;;6.67;;
9720;SDS011;4899;42.644;23.366;2023-01-28T06:54:31;7.10;;;6.13;;
9720;SDS011;4899;42.644;23.366;2023-01-28T06:56:56;6.80;;;6.10;;
9720;SDS011;4899;42.644;23.366;2023-01-28T06:59:22;6.70;;;6.00;;
9720;SDS011;4899;42.644;23.366;2023-01-28T07:01:48;6.77;;;6.07;;
9720;SDS011;4899;42.644;23.366;2023-01-28T07:04:13;8.40;;;7.60;;
9720;SDS011;4899;42.644;23.366;2023-01-28T07:06:39;7.63;;;6.60;;
9720;SDS011;4899;42.644;23.366;2023-01-28T07:09:04;7.57;;;6.87;;
9720;SDS011;4899;42.644;23.366;2023-01-28T07:11:30;7.73;;;7.03;;
9720;SDS011;4899;42.644;23.366;2023-01-28T07:13:55;7.27;;;6.60;;
9720;SDS011;4899;42.644;23.366;2023-01-28T07:16:21;6.17;;;5.00;;
9720;SDS011;4899;42.644;23.366;2023-01-28T07:18:46;7.77;;;7.07;;
9720;SDS011;4899;42.644;23.366;2023-01-28T07:21:12;7.40;;;6.70;;
9720;SDS011;4899;42.644;23.366;2023-01-28T07:23:37;7.20;;;6.50;;
9720;SDS011;4899;42.644;23.366;2023-01-28T07:26:04;7.53;;;6.73;;
9720;SDS011;4899;42.644;23.366;2023-01-28T07:28:30;8.47;;;7.23;;
9720;SDS011;4899;42.644;23.366;2023-01-28T07:30:55;6.77;;;6.17;;
9720;SDS011;4899;42.644;23.366;2023-01-28T07:33:21;7.67;;;6.57;;
9720;SDS011;4899;42.644;23.366;2023-01-28T07:35:47;7.47;;;6.77;;
9720;SDS011;4899;42.644;23.366;2023-01-28T07:38:12;7.50;;;6.70;;
9720;SDS011;4899;42.644;23.366;2023-01-28T07:40:38;7.47;;;6.13;;
9720;SDS011;4899;42.644;23.366;2023-01-28T07:43:06;8.97;;;8.07;;
9720;SDS011;4899;42.644;23.366;2023-01-28T07:45:32;8.10;;;7.30;;
9720;SDS011;4899;42.644;23.366;2023-01-28T07:47:59;8.77;;;7.87;;
9720;SDS011;4899;42.644;23.366;2023-01-28T07:50:26;7.37;;;6.60;;
9720;SDS011;4899;42.644;23.366;2023-01-28T07:52:53;8.47;;;7.60;;
9720;SDS011;4899;42.644;23.366;2023-01-28T07:55:20;8.27;;;7.00;;
9720;SDS011;4899;42.644;23.366;2023-01-28T07:57:49;7.63;;;6.83;;
9720;SDS011;4899;42.644;23.366;2023-01-28T08:00:22;7.37;;;6.67;;
9720;SDS011;4899;42.644;23.366;2023-01-28T08:02:49;7.57;;;6.87;;
9720;SDS011;4899;42.644;23.366;2023-01-28T08:05:19;9.90;;;7.87;;
9720;SDS011;4899;42.644;23.366;2023-01-28T08:07:46;8.17;;;7.37;;
9720;SDS011;4899;42.644;23.366;2023-01-28T08:10:15;7.60;;;6.80;;
9720;SDS011;4899;42.644;23.366;2023-01-28T08:12:54;7.83;;;7.03;;
9720;SDS011;4899;42.644;23.366;2023-01-28T08:15:22;6.40;;;5.80;;
9720;SDS011;4899;42.644;23.366;2023-01-28T08:17:49;7.07;;;6.30;;
9720;SDS011;4899;42.644;23.366;2023-01-28T08:20:15;7.77;;;6.97;;
9720;SDS011;4899;42.644;23.366;2023-01-28T08:22:41;8.37;;;7.27;;
9720;SDS011;4899;42.644;23.366;2023-01-28T08:25:06;8.13;;;7.33;;
9720;SDS011;4899;42.644;23.366;2023-01-28T08:27:32;7.53;;;6.43;;
9720;SDS011;4899;42.644;23.366;2023-01-28T08:29:58;8.60;;;7.70;;
9720;SDS011;4899;42.644;23.366;2023-01-28T08:32:23;8.23;;;7.47;;
9720;SDS011;4899;42.644;23.366;2023-01-28T08:34:49;8.30;;;6.93;;
9720;SDS011;4899;42.644;23.366;2023-01-28T08:37:15;6.63;;;6.03;;
9720;SDS011;4899;42.644;23.366;2023-01-28T08:39:40;7.27;;;6.57;;
9720;SDS011;4899;42.644;23.366;2023-01-28T08:42:07;7.13;;;6.33;;
9720;SDS011;4899;42.644;23.366;2023-01-28T08:44:32;6.73;;;5.97;;
9720;SDS011;4899;42.644;23.366;2023-01-28T08:46:58;7.67;;;6.97;;
9720;SDS011;4899;42.644;23.366;2023-01-28T08:49:24;7.37;;;6.70;;
9720;SDS011;4899;42.644;23.366;2023-01-28T08:51:51;6.97;;;6.27;;
9720;SDS011;4899;42.644;23.366;2023-01-28T08:54:16;7.97;;;7.17;;
9720;SDS011;4899;42.644;23.366;2023-01-28T08:56:42;6.33;;;5.73;;
9720;SDS011;4899;42.644;23.366;2023-01-28T08:59:11;6.73;;;6.13;;
9720;SDS011;4899;42.644;23.366;2023-01-28T09:01:37;7.50;;;6.50;;
9720;SDS011;4899;42.644;23.366;2023-01-28T09:04:03;7.07;;;6.37;;
9720;SDS011;4899;42.644;23.366;2023-01-28T09:06:29;9.87;;;6.87;;
9720;SDS011;4899;42.644;23.366;2023-01-28T09:08:58;7.47;;;6.87;;
9720;SDS011;4899;42.644;23.366;2023-01-28T09:11:24;6.70;;;6.10;;
9720;SDS011;4899;42.644;23.366;2023-01-28T09:13:49;7.07;;;6.40;;
9720;SDS011;4899;42.644;23.366;2023-01-28T09:16:15;7.23;;;6.53;;
9720;SDS011;4899;42.644;23.366;2023-01-28T09:18:41;7.63;;;6.93;;
9720;SDS011;4899;42.644;23.366;2023-01-28T09:21:06;6.80;;;6.10;;
9720;SDS011;4899;42.644;23.366;2023-01-28T09:23:33;7.23;;;6.53;;
9720;SDS011;4899;42.644;23.366;2023-01-28T09:26:00;8.03;;;7.23;;
9720;SDS011;4899;42.644;23.366;2023-01-28T09:28:26;7.27;;;6.57;;
9720;SDS011;4899;42.644;23.366;2023-01-28T09:30:51;6.67;;;5.80;;
9720;SDS011;4899;42.644;23.366;2023-01-28T09:33:18;7.57;;;6.83;;
9720;SDS011;4899;42.644;23.366;2023-01-28T09:35:43;7.47;;;6.77;;
9720;SDS011;4899;42.644;23.366;2023-01-28T09:38:09;8.67;;;7.63;;
9720;SDS011;4899;42.644;23.366;2023-01-28T09:40:36;8.03;;;7.07;;
9720;SDS011;4899;42.644;23.366;2023-01-28T09:47:59;7.77;;;6.20;;
9720;SDS011;4899;42.644;23.366;2023-01-28T09:50:35;7.00;;;6.30;;
9720;SDS011;4899;42.644;23.366;2023-01-28T09:53:16;7.60;;;6.90;;
9720;SDS011;4899;42.644;23.366;2023-01-28T09:55:56;8.03;;;7.17;;
9720;SDS011;4899;42.644;23.366;2023-01-28T09:58:24;7.03;;;6.33;;
9720;SDS011;4899;42.644;23.366;2023-01-28T10:03:59;8.70;;;7.30;;
9720;SDS011;4899;42.644;23.366;2023-01-28T10:17:19;7.77;;;6.90;;
9720;SDS011;4899;42.644;23.366;2023-01-28T10:19:55;9.57;;;8.57;;
9720;SDS011;4899;42.644;23.366;2023-01-28T10:22:29;6.70;;;6.07;;
9720;SDS011;4899;42.644;23.366;2023-01-28T10:25:01;8.77;;;7.97;;
9720;SDS011;4899;42.644;23.366;2023-01-28T10:27:31;9.70;;;8.80;;
9720;SDS011;4899;42.644;23.366;2023-01-28T10:29:57;8.13;;;7.33;;
9720;SDS011;4899;42.644;23.366;2023-01-28T10:32:31;10.17;;;9.17;;
9720;SDS011;4899;42.644;23.366;2023-01-28T10:34:59;10.50;;;9.40;;
9720;SDS011;4899;42.644;23.366;2023-01-28T10:37:29;10.40;;;9.30;;
9720;SDS011;4899;42.644;23.366;2023-01-28T10:39:58;9.40;;;7.57;;
9720;SDS011;4899;42.644;23.366;2023-01-28T10:42:31;7.50;;;6.47;;
9720;SDS011;4899;42.644;23.366;2023-01-28T10:45:33;9.47;;;8.43;;
9720;SDS011;4899;42.644;23.366;2023-01-28T10:48:06;9.57;;;8.60;;
9720;SDS011;4899;42.644;23.366;2023-01-28T10:50:37;9.17;;;8.17;;
9720;SDS011;4899;42.644;23.366;2023-01-28T10:53:14;9.60;;;8.63;;
9720;SDS011;4899;42.644;23.366;2023-01-28T10:55:56;9.30;;;8.37;;
9720;SDS011;4899;42.644;23.366;2023-01-28T10:58:25;8.60;;;7.70;;
9720;SDS011;4899;42.644;23.366;2023-01-28T11:00:56;9.07;;;7.93;;
9720;SDS011;4899;42.644;23.366;2023-01-28T11:03:25;8.90;;;7.83;;
9720;SDS011;4899;42.644;23.366;2023-01-28T11:05:52;8.23;;;7.30;;
9720;SDS011;4899;42.644;23.366;2023-01-28T11:08:19;8.30;;;7.50;;
9720;SDS011;4899;42.644;23.366;2023-01-28T11:10:47;9.10;;;8.20;;
9720;SDS011;4899;42.644;23.366;2023-01-28T11:13:23;7.60;;;6.90;;
9720;SDS011;4899;42.644;23.366;2023-01-28T11:16:04;8.47;;;7.67;;
9720;SDS011;4899;42.644;23.366;2023-01-28T11:18:39;8.83;;;8.10;;
9720;SDS011;4899;42.644;23.366;2023-01-28T11:21:23;8.00;;;7.20;;
9720;SDS011;4899;42.644;23.366;2023-01-28T11:26:25;8.20;;;7.40;;
9720;SDS011;4899;42.644;23.366;2023-01-28T11:28:53;8.00;;;7.30;;
9720;SDS011;4899;42.644;23.366;2023-01-28T11:31:20;8.00;;;6.77;;
9720;SDS011;4899;42.644;23.366;2023-01-28T11:33:54;7.97;;;7.17;;
9720;SDS011;4899;42.644;23.366;2023-01-28T11:36:23;9.37;;;8.47;;
9720;SDS011;4899;42.644;23.366;2023-01-28T11:38:54;7.57;;;6.77;;
9720;SDS011;4899;42.644;23.366;2023-01-28T11:44:00;7.83;;;7.00;;
9720;SDS011;4899;42.644;23.366;2023-01-28T11:52:05;7.63;;;6.93;;
9720;SDS011;4899;42.644;23.366;2023-01-28T12:00:45;8.27;;;7.57;;
9720;SDS011;4899;42.644;23.366;2023-01-28T12:11:17;9.67;;;8.67;;
9720;SDS011;4899;42.644;23.366;2023-01-28T12:14:35;7.30;;;6.60;;
9720;SDS011;4899;42.644;23.366;2023-01-28T12:39:24;8.00;;;7.20;;
9720;SDS011;4899;42.644;23.366;2023-01-28T12:44:59;8.30;;;7.47;;
9720;SDS011;4899;42.644;23.366;2023-01-28T12:47:59;7.70;;;6.97;;
9720;SDS011;4899;42.644;23.366;2023-01-28T12:50:32;8.43;;;7.63;;
9720;SDS011;4899;42.644;23.366;2023-01-28T12:55:49;7.43;;;6.73;;
9720;SDS011;4899;42.644;23.366;2023-01-28T12:58:28;7.67;;;6.97;;
9720;SDS011;4899;42.644;23.366;2023-01-28T13:01:04;8.90;;;6.53;;
9720;SDS011;4899;42.644;23.366;2023-01-28T13:03:44;9.07;;;7.87;;
9720;SDS011;4899;42.644;23.366;2023-01-28T13:06:29;8.60;;;7.70;;
9720;SDS011;4899;42.644;23.366;2023-01-28T13:09:16;8.67;;;7.87;;
9720;SDS011;4899;42.644;23.366;2023-01-28T13:11:46;9.40;;;8.40;;
9720;SDS011;4899;42.644;23.366;2023-01-28T13:14:14;8.23;;;7.43;;
9720;SDS011;4899;42.644;23.366;2023-01-28T13:16:41;8.90;;;8.00;;
9720;SDS011;4899;42.644;23.366;2023-01-28T13:19:10;8.37;;;7.57;;
9720;SDS011;4899;42.644;23.366;2023-01-28T13:21:47;9.43;;;8.53;;
9720;SDS011;4899;42.644;23.366;2023-01-28T13:26:47;9.03;;;8.23;;
9720;SDS011;4899;42.644;23.366;2023-01-28T13:31:47;8.50;;;7.60;;
9720;SDS011;4899;42.644;23.366;2023-01-28T13:36:58;8.63;;;7.83;;
9720;SDS011;4899;42.644;23.366;2023-01-28T13:39:27;10.73;;;8.87;;
9720;SDS011;4899;42.644;23.366;2023-01-28T13:41:55;8.10;;;7.30;;
9720;SDS011;4899;42.644;23.366;2023-01-28T13:44:33;10.30;;;9.30;;
9720;SDS011;4899;42.644;23.366;2023-01-28T13:49:42;10.47;;;9.37;;
9720;SDS011;4899;42.644;23.366;2023-01-28T14:00:20;9.80;;;8.70;;
9720;SDS011;4899;42.644;23.366;2023-01-28T14:03:00;8.80;;;7.90;;
9720;SDS011;4899;42.644;23.366;2023-01-28T14:16:55;10.13;;;8.40;;
9720;SDS011;4899;42.644;23.366;2023-01-28T14:19:27;8.77;;;7.87;;
9720;SDS011;4899;42.644;23.366;2023-01-28T14:21:56;8.50;;;7.60;;
9720;SDS011;4899;42.644;23.366;2023-01-28T14:24:22;8.10;;;7.30;;
9720;SDS011;4899;42.644;23.366;2023-01-28T14:32:16;9.67;;;8.10;;
9720;SDS011;4899;42.644;23.366;2023-01-28T14:34:45;8.50;;;7.70;;
9720;SDS011;4899;42.644;23.366;2023-01-28T14:37:13;8.63;;;7.60;;
9720;SDS011;4899;42.644;23.366;2023-01-28T14:39:51;9.93;;;8.93;;
9720;SDS011;4899;42.644;23.366;2023-01-28T14:42:25;10.10;;;8.97;;
9720;SDS011;4899;42.644;23.366;2023-01-28T14:58:53;9.60;;;8.60;;
9720;SDS011;4899;42.644;23.366;2023-01-28T15:01:28;11.33;;;9.80;;
9720;SDS011;4899;42.644;23.366;2023-01-28T15:03:55;10.30;;;8.67;;
9720;SDS011;4899;42.644;23.366;2023-01-28T15:06:28;11.83;;;10.13;;
9720;SDS011;4899;42.644;23.366;2023-01-28T15:09:05;9.87;;;8.23;;
9720;SDS011;4899;42.644;23.366;2023-01-28T15:11:37;9.93;;;8.93;;
9720;SDS011;4899;42.644;23.366;2023-01-28T15:16:53;9.33;;;6.70;;
9720;SDS011;4899;42.644;23.366;2023-01-28T15:19:24;7.80;;;6.70;;
9720;SDS011;4899;42.644;23.366;2023-01-28T15:21:56;7.70;;;6.83;;
9720;SDS011;4899;42.644;23.366;2023-01-28T15:24:26;8.13;;;6.67;;
9720;SDS011;4899;42.644;23.366;2023-01-28T15:26:52;8.07;;;7.27;;
9720;SDS011;4899;42.644;23.366;2023-01-28T15:29:25;8.07;;;7.07;;
9720;SDS011;4899;42.644;23.366;2023-01-28T15:31:56;8.40;;;7.17;;
9720;SDS011;4899;42.644;23.366;2023-01-28T15:34:21;8.40;;;7.33;;
9720;SDS011;4899;42.644;23.366;2023-01-28T15:36:53;10.43;;;6.60;;
9720;SDS011;4899;42.644;23.366;2023-01-28T15:39:20;8.37;;;7.47;;
9720;SDS011;4899;42.644;23.366;2023-01-28T15:41:48;9.10;;;7.73;;
9720;SDS011;4899;42.644;23.366;2023-01-28T15:44:21;8.50;;;7.63;;
9720;SDS011;4899;42.644;23.366;2023-01-28T15:46:56;7.63;;;6.80;;
9720;SDS011;4899;42.644;23.366;2023-01-28T15:49:31;9.10;;;7.70;;
9720;SDS011;4899;42.644;23.366;2023-01-28T15:52:00;8.63;;;7.70;;
9720;SDS011;4899;42.644;23.366;2023-01-28T15:54:26;7.23;;;6.53;;
9720;SDS011;4899;42.644;23.366;2023-01-28T15:56:54;6.97;;;6.27;;
9720;SDS011;4899;42.644;23.366;2023-01-28T15:59:24;7.17;;;6.47;;
9720;SDS011;4899;42.644;23.366;2023-01-28T16:04:39;7.00;;;6.00;;
9720;SDS011;4899;42.644;23.366;2023-01-28T16:07:05;6.30;;;5.70;;
9720;SDS011;4899;42.644;23.366;2023-01-28T16:09:31;8.00;;;7.20;;
9720;SDS011;4899;42.644;23.366;2023-01-28T16:12:02;9.10;;;7.93;;
9720;SDS011;4899;42.644;23.366;2023-01-28T16:14:35;9.97;;;8.27;;
9720;SDS011;4899;42.644;23.366;2023-01-28T16:17:07;10.33;;;7.90;;
9720;SDS011;4899;42.644;23.366;2023-01-28T16:19:39;8.07;;;7.27;;
9720;SDS011;4899;42.644;23.366;2023-01-28T16:22:07;9.10;;;7.37;;
9720;SDS011;4899;42.644;23.366;2023-01-28T16:24:48;8.57;;;7.67;;
9720;SDS011;4899;42.644;23.366;2023-01-28T16:27:25;8.40;;;7.50;;
9720;SDS011;4899;42.644;23.366;2023-01-28T16:29:52;8.63;;;7.53;;
9720;SDS011;4899;42.644;23.366;2023-01-28T16:32:51;8.77;;;7.60;;
9720;SDS011;4899;42.644;23.366;2023-01-28T16:35:14;10.97;;;8.63;;
9720;SDS011;4899;42.644;23.366;2023-01-28T16:37:42;8.80;;;7.83;;
9720;SDS011;4899;42.644;23.366;2023-01-28T16:40:09;10.77;;;8.33;;
9720;SDS011;4899;42.644;23.366;2023-01-28T16:42:36;9.97;;;7.93;;
9720;SDS011;4899;42.644;23.366;2023-01-28T16:45:01;9.00;;;8.10;;
9720;SDS011;4899;42.644;23.366;2023-01-28T16:47:27;9.03;;;8.10;;
9720;SDS011;4899;42.644;23.366;2023-01-28T16:49:53;8.17;;;6.90;;
9720;SDS011;4899;42.644;23.366;2023-01-28T16:52:18;8.23;;;6.90;;
9720;SDS011;4899;42.644;23.366;2023-01-28T16:54:44;8.00;;;7.20;;
9720;SDS011;4899;42.644;23.366;2023-01-28T16:57:13;7.80;;;6.70;;
9720;SDS011;4899;42.644;23.366;2023-01-28T16:59:41;9.50;;;6.93;;
9720;SDS011;4899;42.644;23.366;2023-01-28T17:02:13;7.53;;;6.83;;
9720;SDS011;4899;42.644;23.366;2023-01-28T17:04:39;12.57;;;9.00;;
9720;SDS011;4899;42.644;23.366;2023-01-28T17:07:05;10.00;;;7.73;;
9720;SDS011;4899;42.644;23.366;2023-01-28T17:09:32;8.93;;;7.77;;
9720;SDS011;4899;42.644;23.366;2023-01-28T17:11:57;9.27;;;8.27;;
9720;SDS011;4899;42.644;23.366;2023-01-28T17:14:23;9.63;;;7.70;;
9720;SDS011;4899;42.644;23.366;2023-01-28T17:16:49;8.83;;;8.03;;
9720;SDS011;4899;42.644;23.366;2023-01-28T17:19:14;8.23;;;7.43;;
9720;SDS011;4899;42.644;23.366;2023-01-28T17:21:41;8.67;;;7.83;;
9720;SDS011;4899;42.644;23.366;2023-01-28T17:24:06;8.93;;;7.87;;
9720;SDS011;4899;42.644;23.366;2023-01-28T17:26:32;8.40;;;7.60;;
9720;SDS011;4899;42.644;23.366;2023-01-28T17:28:59;9.20;;;7.93;;
9720;SDS011;4899;42.644;23.366;2023-01-28T17:31:25;11.37;;;9.53;;
9720;SDS011;4899;42.644;23.366;2023-01-28T17:33:52;9.13;;;8.23;;
9720;SDS011;4899;42.644;23.366;2023-01-28T17:36:19;9.33;;;8.33;;
9720;SDS011;4899;42.644;23.366;2023-01-28T17:38:45;9.97;;;7.80;;
9720;SDS011;4899;42.644;23.366;2023-01-28T17:41:11;8.90;;;7.40;;
9720;SDS011;4899;42.644;23.366;2023-01-28T17:43:37;9.23;;;8.00;;
9720;SDS011;4899;42.644;23.366;2023-01-28T17:46:10;8.07;;;7.27;;
9720;SDS011;4899;42.644;23.366;2023-01-28T17:48:36;9.07;;;7.90;;
9720;SDS011;4899;42.644;23.366;2023-01-28T17:51:02;9.50;;;8.20;;
9720;SDS011;4899;42.644;23.366;2023-01-28T17:53:27;11.43;;;9.43;;
9720;SDS011;4899;42.644;23.366;2023-01-28T17:55:53;8.53;;;7.50;;